Mayo, Canada
Current Conditions -  °F | °C
As of 9:00 PM on Friday 28 Nov 2014 (Local Time) from CYMA Reporting Station
Clear Clear  
Wind Chill: -27°   Ceiling: Unl
Heat Index: -27°   Visibility: 20mi
Dew Point: -35°   Wind: 0mph
Humidity: 69%   Direction: NA
Pressure: 30.23"   Gusts: NA
Location:  63.6°N, 135.88°W
Report Text: CYMA 290500Z 00000KT 20SM SKC M33/M37 A3023 RMK SLP322
Loading
Personal Weather Stations






























Interactive Weather Map New forecast layout! Learn more

10-Day Weather Forecast

Advertisements
Track Severe Weather on mobile